Teigen, MT

10:53 AM MDT on June 03, 2015 (GMT -0600)
Jordan | | Change Station
CLOSE
Current Station
Airport
Location: Jordan,
Elevation: 2661 ft
Nearby Weather Stations

Elev 2661 ft 47.33 °N, 106.95 °W | Updated 5 minutes ago

Overcast
Overcast
60 °F
Feels Like 60 °F
N
9
Wind Variable Wind from SSE
Gusts mph

Today
High -- | Low -- °F
--% Chance of Precip.
Yesterday
High -- | Low -- °F
Precip. -- in
5:22 AM 9:03 PM
Full, 99% visible
Pressure 30.02 in
Visibility -9999.0 miles
Clouds
Dew Point 51 °F
Humidity 72%
Rainfall 0.00 in
Snow Depth Not available.
UV Not available.
Pollen 6.10 out of 12
Air Quality Not available.
Flu Activity Sporadic
METAR KJDN 031648Z AUTO 15008KT 16/11 A3001 RMK AO1 SLP164 T01560106

More Conditions Fewer Conditions

Pressure 30.02 in
Visibility -9999.0 miles
Clouds
Dew Point 51 °F
Humidity 72%
Rainfall 0.00 in
Snow Depth Not available.
UV Not available.
Pollen 6.10 out of 12
Air Quality Not available.
Flu Activity Sporadic
METAR KJDN 031648Z AUTO 15008KT 16/11 A3001 RMK AO1 SLP164 T01560106

More Conditions Fewer Conditions

10-Day Weather Forecast

×

Almanac

Astronomy

Jun. 03, 2015 Rise Set
Actual Time
Civil Twilight
Nautical Twilight
Astronomical Twilight
Moon
Length of Visible Light
Length of Day
Tomorrow will be .
, % of the Moon is Illuminated

Today's Extremes

State Highs State Lows

Community

WunderPhotos

Upload Photos

1,826,256 photos uploaded!

WunderBlogs® & News

Nearby

Air Quality

  Air Quality AQ Index Pollutant
Not available.

Snow Depth

Station Depth Elevation

Earthquake Activity

City Distance Mag. Time & Date
Minimum magnitude displayed is 2.5.

Coastal Water Temperatures

Place Temperature

Stations

Nearby Weather Stations

Station Location Temp. Windchill Dew Point Humidity Wind Precip. Elev Updated Type